TAF LEMI
LEMI 081700Z 0818/0918 30010KT CAVOK TX21/0914Z TN09/0906Z BECMG 0818/0820 24006KT=
METAR LEMI
LEMI 082230Z AUTO 29008KT 260V320 CAVOK 12/M01 Q1019=
LEMI 082200Z AUTO 26006KT 230V290 CAVOK 11/M01 Q1018=
LEMI 082130Z AUTO 24011KT 210V270 CAVOK 12/M01 Q1018=
LEMI 082100Z 25008KT CAVOK 11/M02 Q1018=
LEMI 082030Z 26006KT 240V320 CAVOK 12/M02 Q1017=
WC LEMI
WS LEMI
WV LEMI